sensor_id;sensor_type;location;lat;lon;timestamp;temperature;humidity
52709;DHT22;38606;52.986;6.980;2023-04-25T00:02:21;7.80;99.90
52709;DHT22;38606;52.986;6.980;2023-04-25T00:04:47;7.90;99.90
52709;DHT22;38606;52.986;6.980;2023-04-25T00:07:15;7.60;99.90
52709;DHT22;38606;52.986;6.980;2023-04-25T00:09:41;7.50;99.90
52709;DHT22;38606;52.986;6.980;2023-04-25T00:12:07;7.50;99.90
52709;DHT22;38606;52.986;6.980;2023-04-25T00:14:34;7.50;99.90
52709;DHT22;38606;52.986;6.980;2023-04-25T00:17:01;7.50;99.90
52709;DHT22;38606;52.986;6.980;2023-04-25T00:19:28;7.50;99.90
52709;DHT22;38606;52.986;6.980;2023-04-25T00:21:56;7.60;99.90
52709;DHT22;38606;52.986;6.980;2023-04-25T00:24:22;7.40;99.90
52709;DHT22;38606;52.986;6.980;2023-04-25T00:26:48;7.40;99.90
52709;DHT22;38606;52.986;6.980;2023-04-25T00:29:14;7.50;99.90
52709;DHT22;38606;52.986;6.980;2023-04-25T00:31:40;7.40;99.90
52709;DHT22;38606;52.986;6.980;2023-04-25T00:34:06;7.60;99.90
52709;DHT22;38606;52.986;6.980;2023-04-25T00:36:33;7.30;99.90
52709;DHT22;38606;52.986;6.980;2023-04-25T00:38:59;7.40;99.90
52709;DHT22;38606;52.986;6.980;2023-04-25T00:41:25;7.50;99.90
52709;DHT22;38606;52.986;6.980;2023-04-25T00:43:52;7.60;99.90
52709;DHT22;38606;52.986;6.980;2023-04-25T00:46:19;7.70;99.90
52709;DHT22;38606;52.986;6.980;2023-04-25T00:48:45;7.50;99.90
52709;DHT22;38606;52.986;6.980;2023-04-25T00:51:14;7.50;99.90
52709;DHT22;38606;52.986;6.980;2023-04-25T00:53:41;7.30;99.90
52709;DHT22;38606;52.986;6.980;2023-04-25T00:56:07;7.40;99.90
52709;DHT22;38606;52.986;6.980;2023-04-25T00:58:33;7.50;99.90
52709;DHT22;38606;52.986;6.980;2023-04-25T01:01:00;7.30;99.90
52709;DHT22;38606;52.986;6.980;2023-04-25T01:03:26;7.50;99.90
52709;DHT22;38606;52.986;6.980;2023-04-25T01:05:54;7.40;99.90
52709;DHT22;38606;52.986;6.980;2023-04-25T01:08:23;7.40;99.90
52709;DHT22;38606;52.986;6.980;2023-04-25T01:10:50;7.50;99.90
52709;DHT22;38606;52.986;6.980;2023-04-25T01:13:15;7.50;99.90
52709;DHT22;38606;52.986;6.980;2023-04-25T01:15:41;7.30;99.90
52709;DHT22;38606;52.986;6.980;2023-04-25T01:18:07;7.30;99.90
52709;DHT22;38606;52.986;6.980;2023-04-25T01:20:33;7.50;99.90
52709;DHT22;38606;52.986;6.980;2023-04-25T01:23:00;7.10;99.90
52709;DHT22;38606;52.986;6.980;2023-04-25T01:25:28;7.10;99.90
52709;DHT22;38606;52.986;6.980;2023-04-25T01:27:54;7.00;99.90
52709;DHT22;38606;52.986;6.980;2023-04-25T01:30:20;7.00;99.90
52709;DHT22;38606;52.986;6.980;2023-04-25T01:32:47;6.90;99.90
52709;DHT22;38606;52.986;6.980;2023-04-25T01:35:13;6.70;99.90
52709;DHT22;38606;52.986;6.980;2023-04-25T01:37:40;6.90;99.90
52709;DHT22;38606;52.986;6.980;2023-04-25T01:40:07;6.70;99.90
52709;DHT22;38606;52.986;6.980;2023-04-25T01:42:34;6.90;99.90
52709;DHT22;38606;52.986;6.980;2023-04-25T01:45:01;6.60;99.90
52709;DHT22;38606;52.986;6.980;2023-04-25T01:47:27;6.80;99.90
52709;DHT22;38606;52.986;6.980;2023-04-25T01:49:53;6.80;99.90
52709;DHT22;38606;52.986;6.980;2023-04-25T01:52:19;6.70;99.90
52709;DHT22;38606;52.986;6.980;2023-04-25T01:54:45;6.70;99.90
52709;DHT22;38606;52.986;6.980;2023-04-25T01:57:12;6.90;99.90
52709;DHT22;38606;52.986;6.980;2023-04-25T01:59:38;6.80;99.90
52709;DHT22;38606;52.986;6.980;2023-04-25T02:02:04;6.90;99.90
52709;DHT22;38606;52.986;6.980;2023-04-25T02:04:30;6.70;99.90
52709;DHT22;38606;52.986;6.980;2023-04-25T02:06:55;6.60;99.90
52709;DHT22;38606;52.986;6.980;2023-04-25T02:09:21;6.50;99.90
52709;DHT22;38606;52.986;6.980;2023-04-25T02:11:47;6.60;99.90
52709;DHT22;38606;52.986;6.980;2023-04-25T02:14:13;6.60;99.90
52709;DHT22;38606;52.986;6.980;2023-04-25T02:16:39;6.50;99.90
52709;DHT22;38606;52.986;6.980;2023-04-25T02:19:05;6.60;99.90
52709;DHT22;38606;52.986;6.980;2023-04-25T02:21:31;6.60;99.90
52709;DHT22;38606;52.986;6.980;2023-04-25T02:23:57;6.50;99.90
52709;DHT22;38606;52.986;6.980;2023-04-25T02:26:24;6.60;99.90
52709;DHT22;38606;52.986;6.980;2023-04-25T02:28:50;6.50;99.90
52709;DHT22;38606;52.986;6.980;2023-04-25T02:31:16;8.40;99.90
52709;DHT22;38606;52.986;6.980;2023-04-25T02:33:42;6.50;99.90
52709;DHT22;38606;52.986;6.980;2023-04-25T02:36:08;6.60;99.90
52709;DHT22;38606;52.986;6.980;2023-04-25T02:38:34;6.60;99.90
52709;DHT22;38606;52.986;6.980;2023-04-25T02:41:00;6.70;99.90
52709;DHT22;38606;52.986;6.980;2023-04-25T02:43:26;6.40;99.90
52709;DHT22;38606;52.986;6.980;2023-04-25T02:45:51;5.60;99.90
52709;DHT22;38606;52.986;6.980;2023-04-25T02:48:17;6.50;99.90
52709;DHT22;38606;52.986;6.980;2023-04-25T02:50:43;6.60;99.90
52709;DHT22;38606;52.986;6.980;2023-04-25T02:53:09;6.50;99.90
52709;DHT22;38606;52.986;6.980;2023-04-25T02:55:35;6.50;99.90
52709;DHT22;38606;52.986;6.980;2023-04-25T02:58:00;6.60;99.90
52709;DHT22;38606;52.986;6.980;2023-04-25T03:00:26;6.60;99.90
52709;DHT22;38606;52.986;6.980;2023-04-25T03:02:52;6.60;99.90
52709;DHT22;38606;52.986;6.980;2023-04-25T03:05:18;6.60;99.90
52709;DHT22;38606;52.986;6.980;2023-04-25T03:07:44;6.50;99.90
52709;DHT22;38606;52.986;6.980;2023-04-25T03:10:10;6.50;99.90
52709;DHT22;38606;52.986;6.980;2023-04-25T03:12:37;6.60;99.90
52709;DHT22;38606;52.986;6.980;2023-04-25T03:15:03;5.40;99.90
52709;DHT22;38606;52.986;6.980;2023-04-25T03:17:29;6.50;99.90
52709;DHT22;38606;52.986;6.980;2023-04-25T03:19:55;6.50;99.90
52709;DHT22;38606;52.986;6.980;2023-04-25T03:22:21;6.60;99.90
52709;DHT22;38606;52.986;6.980;2023-04-25T03:24:47;6.60;99.90
52709;DHT22;38606;52.986;6.980;2023-04-25T03:27:13;6.70;99.90
52709;DHT22;38606;52.986;6.980;2023-04-25T03:29:39;6.60;99.90
52709;DHT22;38606;52.986;6.980;2023-04-25T03:32:05;6.70;99.90
52709;DHT22;38606;52.986;6.980;2023-04-25T03:34:31;6.50;99.90
52709;DHT22;38606;52.986;6.980;2023-04-25T03:36:57;6.50;99.90
52709;DHT22;38606;52.986;6.980;2023-04-25T03:39:23;6.50;99.90
52709;DHT22;38606;52.986;6.980;2023-04-25T03:41:49;6.40;99.90
52709;DHT22;38606;52.986;6.980;2023-04-25T03:44:14;6.50;99.90
52709;DHT22;38606;52.986;6.980;2023-04-25T03:46:40;6.20;99.90
52709;DHT22;38606;52.986;6.980;2023-04-25T03:49:06;6.40;99.90
52709;DHT22;38606;52.986;6.980;2023-04-25T03:51:32;6.40;99.90
52709;DHT22;38606;52.986;6.980;2023-04-25T03:53:58;5.30;99.90
52709;DHT22;38606;52.986;6.980;2023-04-25T03:56:23;6.40;99.90
52709;DHT22;38606;52.986;6.980;2023-04-25T03:58:50;6.60;99.90
52709;DHT22;38606;52.986;6.980;2023-04-25T04:01:15;6.30;99.90
52709;DHT22;38606;52.986;6.980;2023-04-25T04:03:41;6.40;99.90
52709;DHT22;38606;52.986;6.980;2023-04-25T04:06:07;6.40;99.90
52709;DHT22;38606;52.986;6.980;2023-04-25T04:08:34;6.40;99.90
52709;DHT22;38606;52.986;6.980;2023-04-25T04:11:00;6.50;99.90
52709;DHT22;38606;52.986;6.980;2023-04-25T04:13:27;6.40;99.90
52709;DHT22;38606;52.986;6.980;2023-04-25T04:15:53;6.40;99.90
52709;DHT22;38606;52.986;6.980;2023-04-25T04:18:19;6.10;99.90
52709;DHT22;38606;52.986;6.980;2023-04-25T04:20:45;6.40;99.90
52709;DHT22;38606;52.986;6.980;2023-04-25T04:23:11;6.50;99.90
52709;DHT22;38606;52.986;6.980;2023-04-25T04:25:37;6.20;99.90
52709;DHT22;38606;52.986;6.980;2023-04-25T04:28:03;6.40;99.90
52709;DHT22;38606;52.986;6.980;2023-04-25T04:30:29;6.30;99.90
52709;DHT22;38606;52.986;6.980;2023-04-25T04:32:56;6.10;99.90
52709;DHT22;38606;52.986;6.980;2023-04-25T04:35:23;6.00;99.90
52709;DHT22;38606;52.986;6.980;2023-04-25T04:37:49;6.30;99.90
52709;DHT22;38606;52.986;6.980;2023-04-25T04:40:15;6.10;99.90
52709;DHT22;38606;52.986;6.980;2023-04-25T04:42:42;6.00;99.90
52709;DHT22;38606;52.986;6.980;2023-04-25T04:45:09;6.20;99.90
52709;DHT22;38606;52.986;6.980;2023-04-25T04:47:35;6.10;99.90
52709;DHT22;38606;52.986;6.980;2023-04-25T04:50:03;6.00;99.90
52709;DHT22;38606;52.986;6.980;2023-04-25T04:52:30;6.20;99.90
52709;DHT22;38606;52.986;6.980;2023-04-25T04:54:56;6.00;99.90
52709;DHT22;38606;52.986;6.980;2023-04-25T04:57:21;6.00;99.90
52709;DHT22;38606;52.986;6.980;2023-04-25T04:59:47;5.90;99.90
52709;DHT22;38606;52.986;6.980;2023-04-25T05:02:13;6.20;99.90
52709;DHT22;38606;52.986;6.980;2023-04-25T05:04:39;6.10;99.90
52709;DHT22;38606;52.986;6.980;2023-04-25T05:07:04;6.80;99.90
52709;DHT22;38606;52.986;6.980;2023-04-25T05:09:30;5.90;99.90
52709;DHT22;38606;52.986;6.980;2023-04-25T05:11:56;6.10;99.90
52709;DHT22;38606;52.986;6.980;2023-04-25T05:14:22;6.30;99.90
52709;DHT22;38606;52.986;6.980;2023-04-25T05:16:48;6.10;99.90
52709;DHT22;38606;52.986;6.980;2023-04-25T05:19:14;6.00;99.90
52709;DHT22;38606;52.986;6.980;2023-04-25T05:21:40;6.00;99.90
52709;DHT22;38606;52.986;6.980;2023-04-25T05:24:06;6.20;99.90
52709;DHT22;38606;52.986;6.980;2023-04-25T05:26:31;6.20;99.90
52709;DHT22;38606;52.986;6.980;2023-04-25T05:28:57;6.20;99.90
52709;DHT22;38606;52.986;6.980;2023-04-25T05:31:23;6.10;99.90
52709;DHT22;38606;52.986;6.980;2023-04-25T05:33:49;6.30;99.90
52709;DHT22;38606;52.986;6.980;2023-04-25T05:36:15;6.50;99.90
52709;DHT22;38606;52.986;6.980;2023-04-25T05:38:40;6.50;99.90
52709;DHT22;38606;52.986;6.980;2023-04-25T05:41:07;6.50;99.90
52709;DHT22;38606;52.986;6.980;2023-04-25T05:43:33;6.50;99.90
52709;DHT22;38606;52.986;6.980;2023-04-25T05:45:59;6.70;99.90
52709;DHT22;38606;52.986;6.980;2023-04-25T05:48:25;6.70;99.90
52709;DHT22;38606;52.986;6.980;2023-04-25T05:50:50;6.70;99.90
52709;DHT22;38606;52.986;6.980;2023-04-25T05:53:18;6.80;99.90
52709;DHT22;38606;52.986;6.980;2023-04-25T05:55:43;6.90;99.90
52709;DHT22;38606;52.986;6.980;2023-04-25T05:58:09;6.70;99.90
52709;DHT22;38606;52.986;6.980;2023-04-25T06:00:35;6.70;99.90
52709;DHT22;38606;52.986;6.980;2023-04-25T06:03:01;6.50;99.90
52709;DHT22;38606;52.986;6.980;2023-04-25T06:05:27;6.60;99.90
52709;DHT22;38606;52.986;6.980;2023-04-25T06:07:53;6.90;99.90
52709;DHT22;38606;52.986;6.980;2023-04-25T06:10:18;6.70;99.90
52709;DHT22;38606;52.986;6.980;2023-04-25T06:12:44;6.70;99.90
52709;DHT22;38606;52.986;6.980;2023-04-25T06:15:10;6.80;99.90
52709;DHT22;38606;52.986;6.980;2023-04-25T06:17:36;6.70;99.90
52709;DHT22;38606;52.986;6.980;2023-04-25T06:20:02;6.60;99.90
52709;DHT22;38606;52.986;6.980;2023-04-25T06:22:29;6.80;99.90
52709;DHT22;38606;52.986;6.980;2023-04-25T06:24:55;6.80;99.90
52709;DHT22;38606;52.986;6.980;2023-04-25T06:27:24;7.10;99.90
52709;DHT22;38606;52.986;6.980;2023-04-25T06:29:50;7.00;99.90
52709;DHT22;38606;52.986;6.980;2023-04-25T06:32:16;7.10;99.90
52709;DHT22;38606;52.986;6.980;2023-04-25T06:34:43;7.00;99.90
52709;DHT22;38606;52.986;6.980;2023-04-25T06:37:09;7.10;99.90
52709;DHT22;38606;52.986;6.980;2023-04-25T06:39:35;7.30;99.90
52709;DHT22;38606;52.986;6.980;2023-04-25T06:42:00;7.30;99.90
52709;DHT22;38606;52.986;6.980;2023-04-25T06:44:26;7.20;99.90
52709;DHT22;38606;52.986;6.980;2023-04-25T06:46:54;7.40;99.90
52709;DHT22;38606;52.986;6.980;2023-04-25T06:49:20;7.30;99.90
52709;DHT22;38606;52.986;6.980;2023-04-25T06:51:46;7.30;99.90
52709;DHT22;38606;52.986;6.980;2023-04-25T06:54:12;7.40;99.90
52709;DHT22;38606;52.986;6.980;2023-04-25T06:56:37;7.40;99.90
52709;DHT22;38606;52.986;6.980;2023-04-25T06:59:03;7.40;99.90
52709;DHT22;38606;52.986;6.980;2023-04-25T07:01:29;7.50;99.90
52709;DHT22;38606;52.986;6.980;2023-04-25T07:03:55;7.50;99.90
52709;DHT22;38606;52.986;6.980;2023-04-25T07:06:21;7.50;99.90
52709;DHT22;38606;52.986;6.980;2023-04-25T07:08:47;7.60;99.90
52709;DHT22;38606;52.986;6.980;2023-04-25T07:11:12;7.70;99.90
52709;DHT22;38606;52.986;6.980;2023-04-25T07:13:38;8.00;99.90
52709;DHT22;38606;52.986;6.980;2023-04-25T07:16:04;7.80;99.90
52709;DHT22;38606;52.986;6.980;2023-04-25T07:18:30;8.20;99.90
52709;DHT22;38606;52.986;6.980;2023-04-25T07:20:56;8.10;99.90
52709;DHT22;38606;52.986;6.980;2023-04-25T07:23:21;7.90;99.90
52709;DHT22;38606;52.986;6.980;2023-04-25T07:25:47;8.40;99.90
52709;DHT22;38606;52.986;6.980;2023-04-25T07:28:13;8.40;99.90
52709;DHT22;38606;52.986;6.980;2023-04-25T07:30:39;8.60;99.90
52709;DHT22;38606;52.986;6.980;2023-04-25T07:33:05;9.00;99.90
52709;DHT22;38606;52.986;6.980;2023-04-25T07:35:30;9.00;99.90
52709;DHT22;38606;52.986;6.980;2023-04-25T07:37:56;9.30;99.90
52709;DHT22;38606;52.986;6.980;2023-04-25T07:40:22;9.40;99.90
52709;DHT22;38606;52.986;6.980;2023-04-25T07:42:48;9.50;99.90
52709;DHT22;38606;52.986;6.980;2023-04-25T07:45:14;9.50;99.90
52709;DHT22;38606;52.986;6.980;2023-04-25T07:47:39;9.60;99.90
52709;DHT22;38606;52.986;6.980;2023-04-25T07:50:05;9.40;99.90
52709;DHT22;38606;52.986;6.980;2023-04-25T07:52:32;9.20;99.90
52709;DHT22;38606;52.986;6.980;2023-04-25T07:54:57;9.10;99.90
52709;DHT22;38606;52.986;6.980;2023-04-25T07:57:24;8.90;99.90
52709;DHT22;38606;52.986;6.980;2023-04-25T07:59:50;8.60;99.90
52709;DHT22;38606;52.986;6.980;2023-04-25T08:02:15;8.60;99.90
52709;DHT22;38606;52.986;6.980;2023-04-25T08:04:41;8.90;99.90
52709;DHT22;38606;52.986;6.980;2023-04-25T08:07:07;8.80;99.90
52709;DHT22;38606;52.986;6.980;2023-04-25T08:09:33;8.90;99.90
52709;DHT22;38606;52.986;6.980;2023-04-25T08:12:01;9.20;99.90
52709;DHT22;38606;52.986;6.980;2023-04-25T08:14:28;9.20;99.90
52709;DHT22;38606;52.986;6.980;2023-04-25T08:16:56;9.40;99.90
52709;DHT22;38606;52.986;6.980;2023-04-25T08:19:22;9.80;99.90
52709;DHT22;38606;52.986;6.980;2023-04-25T08:21:48;9.80;99.90
52709;DHT22;38606;52.986;6.980;2023-04-25T08:24:14;10.00;99.90
52709;DHT22;38606;52.986;6.980;2023-04-25T08:26:39;10.10;99.90
52709;DHT22;38606;52.986;6.980;2023-04-25T08:29:06;9.90;99.90
52709;DHT22;38606;52.986;6.980;2023-04-25T08:31:32;10.00;99.90
52709;DHT22;38606;52.986;6.980;2023-04-25T08:33:58;10.20;99.90
52709;DHT22;38606;52.986;6.980;2023-04-25T08:36:23;10.10;99.90
52709;DHT22;38606;52.986;6.980;2023-04-25T08:38:49;10.20;99.90
52709;DHT22;38606;52.986;6.980;2023-04-25T08:41:16;10.10;99.90
52709;DHT22;38606;52.986;6.980;2023-04-25T08:43:43;10.00;99.90
52709;DHT22;38606;52.986;6.980;2023-04-25T08:46:12;10.10;99.90
52709;DHT22;38606;52.986;6.980;2023-04-25T08:48:40;10.30;99.90
52709;DHT22;38606;52.986;6.980;2023-04-25T08:51:10;10.20;99.90
52709;DHT22;38606;52.986;6.980;2023-04-25T08:53:36;10.10;99.90
52709;DHT22;38606;52.986;6.980;2023-04-25T08:56:02;10.30;99.90
52709;DHT22;38606;52.986;6.980;2023-04-25T08:58:28;10.60;99.90
52709;DHT22;38606;52.986;6.980;2023-04-25T09:00:55;10.40;99.90
52709;DHT22;38606;52.986;6.980;2023-04-25T09:03:20;10.50;99.90
52709;DHT22;38606;52.986;6.980;2023-04-25T09:05:46;10.20;99.90
52709;DHT22;38606;52.986;6.980;2023-04-25T09:08:12;10.20;99.90
52709;DHT22;38606;52.986;6.980;2023-04-25T09:10:38;10.10;99.90
52709;DHT22;38606;52.986;6.980;2023-04-25T09:13:14;9.70;99.90
52709;DHT22;38606;52.986;6.980;2023-04-25T09:15:51;9.80;99.90
52709;DHT22;38606;52.986;6.980;2023-04-25T09:18:34;9.90;99.90
52709;DHT22;38606;52.986;6.980;2023-04-25T09:21:09;10.00;99.90
52709;DHT22;38606;52.986;6.980;2023-04-25T09:23:47;10.30;99.90
52709;DHT22;38606;52.986;6.980;2023-04-25T09:26:18;10.20;99.90
52709;DHT22;38606;52.986;6.980;2023-04-25T09:28:44;10.20;99.90
52709;DHT22;38606;52.986;6.980;2023-04-25T09:31:11;10.00;99.90
52709;DHT22;38606;52.986;6.980;2023-04-25T09:33:37;10.20;99.90
52709;DHT22;38606;52.986;6.980;2023-04-25T09:36:09;10.10;99.90
52709;DHT22;38606;52.986;6.980;2023-04-25T09:38:44;10.40;99.90
52709;DHT22;38606;52.986;6.980;2023-04-25T09:41:11;10.30;99.90
52709;DHT22;38606;52.986;6.980;2023-04-25T09:43:37;10.50;99.90
52709;DHT22;38606;52.986;6.980;2023-04-25T09:46:10;10.70;99.90
52709;DHT22;38606;52.986;6.980;2023-04-25T09:48:37;10.60;99.90
52709;DHT22;38606;52.986;6.980;2023-04-25T09:51:10;10.60;99.90
52709;DHT22;38606;52.986;6.980;2023-04-25T09:53:38;10.80;99.90
52709;DHT22;38606;52.986;6.980;2023-04-25T09:56:05;11.10;99.90
52709;DHT22;38606;52.986;6.980;2023-04-25T09:58:32;11.00;99.90
52709;DHT22;38606;52.986;6.980;2023-04-25T10:01:01;11.00;99.90
52709;DHT22;38606;52.986;6.980;2023-04-25T10:03:33;11.10;99.90
52709;DHT22;38606;52.986;6.980;2023-04-25T10:06:06;11.10;99.90
52709;DHT22;38606;52.986;6.980;2023-04-25T10:08:34;11.30;99.90
52709;DHT22;38606;52.986;6.980;2023-04-25T10:11:07;11.40;99.90
52709;DHT22;38606;52.986;6.980;2023-04-25T10:13:34;11.40;99.90
52709;DHT22;38606;52.986;6.980;2023-04-25T10:16:01;11.20;99.90
52709;DHT22;38606;52.986;6.980;2023-04-25T10:18:29;11.40;99.90
52709;DHT22;38606;52.986;6.980;2023-04-25T10:20:56;11.40;99.90
52709;DHT22;38606;52.986;6.980;2023-04-25T10:23:23;11.50;99.90
52709;DHT22;38606;52.986;6.980;2023-04-25T10:25:52;11.30;99.90
52709;DHT22;38606;52.986;6.980;2023-04-25T10:28:19;10.80;99.90
52709;DHT22;38606;52.986;6.980;2023-04-25T10:31:01;10.40;99.90
52709;DHT22;38606;52.986;6.980;2023-04-25T10:33:39;10.10;99.90
52709;DHT22;38606;52.986;6.980;2023-04-25T10:36:17;9.90;99.90
52709;DHT22;38606;52.986;6.980;2023-04-25T10:38:43;10.00;99.90
52709;DHT22;38606;52.986;6.980;2023-04-25T10:41:10;10.00;99.90
52709;DHT22;38606;52.986;6.980;2023-04-25T10:43:37;9.50;99.90
52709;DHT22;38606;52.986;6.980;2023-04-25T10:46:22;9.60;99.90
52709;DHT22;38606;52.986;6.980;2023-04-25T10:48:52;9.80;99.90
52709;DHT22;38606;52.986;6.980;2023-04-25T10:51:22;10.00;99.90
52709;DHT22;38606;52.986;6.980;2023-04-25T10:54:02;9.90;99.90
52709;DHT22;38606;52.986;6.980;2023-04-25T10:56:29;10.10;99.90
52709;DHT22;38606;52.986;6.980;2023-04-25T10:59:14;10.30;99.90
52709;DHT22;38606;52.986;6.980;2023-04-25T11:01:44;10.50;99.90
52709;DHT22;38606;52.986;6.980;2023-04-25T11:04:36;10.80;99.90
52709;DHT22;38606;52.986;6.980;2023-04-25T11:07:12;10.30;99.90
52709;DHT22;38606;52.986;6.980;2023-04-25T11:09:40;10.30;99.90
52709;DHT22;38606;52.986;6.980;2023-04-25T11:12:08;10.20;99.90
52709;DHT22;38606;52.986;6.980;2023-04-25T11:14:35;10.10;99.90
52709;DHT22;38606;52.986;6.980;2023-04-25T11:17:01;10.30;99.90
52709;DHT22;38606;52.986;6.980;2023-04-25T11:19:28;10.00;99.90
52709;DHT22;38606;52.986;6.980;2023-04-25T11:21:59;10.00;99.90
52709;DHT22;38606;52.986;6.980;2023-04-25T11:24:27;9.90;99.90
52709;DHT22;38606;52.986;6.980;2023-04-25T11:26:53;10.20;99.90
52709;DHT22;38606;52.986;6.980;2023-04-25T11:29:28;10.10;99.90
52709;DHT22;38606;52.986;6.980;2023-04-25T11:31:55;10.30;99.90
52709;DHT22;38606;52.986;6.980;2023-04-25T11:34:23;10.60;99.90
52709;DHT22;38606;52.986;6.980;2023-04-25T11:36:51;10.70;99.90
52709;DHT22;38606;52.986;6.980;2023-04-25T11:39:18;10.90;99.90
52709;DHT22;38606;52.986;6.980;2023-04-25T11:41:44;11.20;99.90
52709;DHT22;38606;52.986;6.980;2023-04-25T11:44:11;11.10;99.90
52709;DHT22;38606;52.986;6.980;2023-04-25T11:46:37;10.80;99.90
52709;DHT22;38606;52.986;6.980;2023-04-25T11:49:03;10.70;99.90
52709;DHT22;38606;52.986;6.980;2023-04-25T11:51:30;10.40;99.90
52709;DHT22;38606;52.986;6.980;2023-04-25T11:54:03;10.50;99.90
52709;DHT22;38606;52.986;6.980;2023-04-25T11:56:28;10.70;99.90
52709;DHT22;38606;52.986;6.980;2023-04-25T11:59:05;10.80;99.90
52709;DHT22;38606;52.986;6.980;2023-04-25T12:01:36;10.80;99.90
52709;DHT22;38606;52.986;6.980;2023-04-25T12:04:21;10.70;99.90
52709;DHT22;38606;52.986;6.980;2023-04-25T12:06:49;10.70;99.90
52709;DHT22;38606;52.986;6.980;2023-04-25T12:09:19;10.60;99.90
52709;DHT22;38606;52.986;6.980;2023-04-25T12:11:47;11.60;99.90
52709;DHT22;38606;52.986;6.980;2023-04-25T12:14:27;10.80;99.90
52709;DHT22;38606;52.986;6.980;2023-04-25T12:16:58;11.10;99.90
52709;DHT22;38606;52.986;6.980;2023-04-25T12:19:25;11.20;99.90
52709;DHT22;38606;52.986;6.980;2023-04-25T12:21:51;11.40;99.90
52709;DHT22;38606;52.986;6.980;2023-04-25T12:24:21;11.30;99.90
52709;DHT22;38606;52.986;6.980;2023-04-25T12:26:51;11.20;99.90
52709;DHT22;38606;52.986;6.980;2023-04-25T12:29:19;11.00;99.90
52709;DHT22;38606;52.986;6.980;2023-04-25T12:31:45;11.10;99.90
52709;DHT22;38606;52.986;6.980;2023-04-25T12:34:12;11.20;99.90
52709;DHT22;38606;52.986;6.980;2023-04-25T12:36:38;11.30;99.90
52709;DHT22;38606;52.986;6.980;2023-04-25T12:39:04;11.30;99.90
52709;DHT22;38606;52.986;6.980;2023-04-25T12:41:30;11.30;99.90
52709;DHT22;38606;52.986;6.980;2023-04-25T12:43:56;11.60;99.90
52709;DHT22;38606;52.986;6.980;2023-04-25T12:46:22;11.50;99.90
52709;DHT22;38606;52.986;6.980;2023-04-25T12:48:51;11.40;99.90
52709;DHT22;38606;52.986;6.980;2023-04-25T12:51:16;11.50;99.90
52709;DHT22;38606;52.986;6.980;2023-04-25T12:53:42;11.60;99.90
52709;DHT22;38606;52.986;6.980;2023-04-25T12:56:08;11.40;99.90
52709;DHT22;38606;52.986;6.980;2023-04-25T12:58:34;11.70;99.90
52709;DHT22;38606;52.986;6.980;2023-04-25T13:01:00;11.50;99.90
52709;DHT22;38606;52.986;6.980;2023-04-25T13:03:25;11.50;99.90
52709;DHT22;38606;52.986;6.980;2023-04-25T13:05:52;11.50;99.90
52709;DHT22;38606;52.986;6.980;2023-04-25T13:08:18;11.20;99.90
52709;DHT22;38606;52.986;6.980;2023-04-25T13:10:44;11.10;99.90
52709;DHT22;38606;52.986;6.980;2023-04-25T13:13:10;11.10;99.90
52709;DHT22;38606;52.986;6.980;2023-04-25T13:15:36;11.10;99.90
52709;DHT22;38606;52.986;6.980;2023-04-25T13:18:03;11.30;99.90
52709;DHT22;38606;52.986;6.980;2023-04-25T13:20:31;11.10;99.90
52709;DHT22;38606;52.986;6.980;2023-04-25T13:22:57;11.20;99.90
52709;DHT22;38606;52.986;6.980;2023-04-25T13:25:22;11.00;99.90
52709;DHT22;38606;52.986;6.980;2023-04-25T13:27:48;11.10;99.90
52709;DHT22;38606;52.986;6.980;2023-04-25T13:30:14;11.40;99.90
52709;DHT22;38606;52.986;6.980;2023-04-25T13:32:40;11.20;99.90
52709;DHT22;38606;52.986;6.980;2023-04-25T13:35:09;11.30;99.90
52709;DHT22;38606;52.986;6.980;2023-04-25T13:37:35;11.10;99.90
52709;DHT22;38606;52.986;6.980;2023-04-25T13:40:06;11.00;99.90
52709;DHT22;38606;52.986;6.980;2023-04-25T13:42:34;11.10;99.90
52709;DHT22;38606;52.986;6.980;2023-04-25T13:45:00;11.20;99.90
52709;DHT22;38606;52.986;6.980;2023-04-25T13:47:27;10.90;99.90
52709;DHT22;38606;52.986;6.980;2023-04-25T13:49:53;10.90;99.90
52709;DHT22;38606;52.986;6.980;2023-04-25T13:52:20;11.10;99.90
52709;DHT22;38606;52.986;6.980;2023-04-25T13:54:46;11.20;99.90
52709;DHT22;38606;52.986;6.980;2023-04-25T13:57:12;11.30;99.90
52709;DHT22;38606;52.986;6.980;2023-04-25T13:59:38;11.50;99.90
52709;DHT22;38606;52.986;6.980;2023-04-25T14:02:06;11.40;99.90
52709;DHT22;38606;52.986;6.980;2023-04-25T14:04:33;11.40;99.90
52709;DHT22;38606;52.986;6.980;2023-04-25T14:06:59;11.20;99.90
52709;DHT22;38606;52.986;6.980;2023-04-25T14:09:25;11.10;99.90
52709;DHT22;38606;52.986;6.980;2023-04-25T14:11:52;11.10;99.90
52709;DHT22;38606;52.986;6.980;2023-04-25T14:14:19;11.20;99.90
52709;DHT22;38606;52.986;6.980;2023-04-25T14:16:46;10.70;99.90
52709;DHT22;38606;52.986;6.980;2023-04-25T14:19:14;10.80;99.90
52709;DHT22;38606;52.986;6.980;2023-04-25T14:21:40;10.80;99.90
52709;DHT22;38606;52.986;6.980;2023-04-25T14:24:06;11.00;99.90
52709;DHT22;38606;52.986;6.980;2023-04-25T14:26:33;11.20;99.90
52709;DHT22;38606;52.986;6.980;2023-04-25T14:29:01;11.20;99.90
52709;DHT22;38606;52.986;6.980;2023-04-25T14:31:27;11.40;99.90
52709;DHT22;38606;52.986;6.980;2023-04-25T14:33:53;11.40;99.90
52709;DHT22;38606;52.986;6.980;2023-04-25T14:36:19;11.10;99.90
52709;DHT22;38606;52.986;6.980;2023-04-25T14:38:45;11.10;99.90
52709;DHT22;38606;52.986;6.980;2023-04-25T14:41:12;11.00;99.90
52709;DHT22;38606;52.986;6.980;2023-04-25T14:43:38;11.20;99.90
52709;DHT22;38606;52.986;6.980;2023-04-25T14:46:05;11.20;99.90
52709;DHT22;38606;52.986;6.980;2023-04-25T14:48:32;11.00;99.90
52709;DHT22;38606;52.986;6.980;2023-04-25T14:50:59;11.00;99.90
52709;DHT22;38606;52.986;6.980;2023-04-25T14:53:25;11.10;99.90
52709;DHT22;38606;52.986;6.980;2023-04-25T14:55:52;10.80;99.90
52709;DHT22;38606;52.986;6.980;2023-04-25T14:58:18;9.70;99.90
52709;DHT22;38606;52.986;6.980;2023-04-25T15:00:44;10.70;99.90
52709;DHT22;38606;52.986;6.980;2023-04-25T15:03:10;10.80;99.90
52709;DHT22;38606;52.986;6.980;2023-04-25T15:05:38;10.70;99.90
52709;DHT22;38606;52.986;6.980;2023-04-25T15:08:04;10.60;99.90
52709;DHT22;38606;52.986;6.980;2023-04-25T15:10:30;10.80;99.90
52709;DHT22;38606;52.986;6.980;2023-04-25T15:12:56;10.50;99.90
52709;DHT22;38606;52.986;6.980;2023-04-25T15:15:22;10.70;99.90
52709;DHT22;38606;52.986;6.980;2023-04-25T15:17:49;10.50;99.90
52709;DHT22;38606;52.986;6.980;2023-04-25T15:20:15;10.50;99.90
52709;DHT22;38606;52.986;6.980;2023-04-25T15:22:42;10.50;99.90
52709;DHT22;38606;52.986;6.980;2023-04-25T15:25:09;10.80;99.90
52709;DHT22;38606;52.986;6.980;2023-04-25T15:27:36;10.50;99.90
52709;DHT22;38606;52.986;6.980;2023-04-25T15:30:10;10.60;99.90
52709;DHT22;38606;52.986;6.980;2023-04-25T15:32:41;10.70;99.90
52709;DHT22;38606;52.986;6.980;2023-04-25T15:35:07;10.40;99.90
52709;DHT22;38606;52.986;6.980;2023-04-25T15:37:34;10.50;99.90
52709;DHT22;38606;52.986;6.980;2023-04-25T15:40:14;10.30;99.90